Nearby METAR Reports

 

KALB - Albany, New York, USA
Distance from station: E 47mi, 75km
Updated: Mon, 30-Jan-2023 11:58am EST
Overcast
Overcast
 Wind from calm
Wind: Calm
Temperature: 30°F , -1°C
Dew Point: 23°F , -5°C
Humidity: 75%
Barometer: 30.20 inHg , 1022.7 hPa
Clouds: Overcast
Visibility: 10 miles , 16 km
Cloud details: Mostly cloudy 2000 ft
Mostly cloudy 3200 ft
Overcast 25000 ft
2023/01/30 16:58 KALB 301658Z 00000KT 10SM BKN020 BKN032 OVC250 M01/M05 A3020 RMK AO2 T10061050
KSLK - Saranac Lake, New York, USA
Distance from station: N 110mi, 177km
Updated: Mon, 30-Jan-2023 11:51am EST
Overcast
Overcast
 Wind from WSW
Wind: WSW 3 mph , 6 km/h
Temperature: 19°F , -7°C
Dew Point: 16°F , -9°C
Humidity: 86%
Barometer: 30.07 inHg , 1018.3 hPa
Clouds: Overcast
Visibility: 10 miles , 16 km
Cloud details: Overcast 700 ft
2023/01/30 16:51 KSLK 301651Z AUTO 25003KT 10SM OVC007 M07/M09 A3007 RMK AO2 SLP208 T10721094
 
KSYR - Syracuse, New York, USA
Distance from station: W 73mi, 117km
Updated: Mon, 30-Jan-2023 11:54am EST
Light snow, Overcast
Light snow, Overcast
 Wind from NNW
Wind: NNW 3 mph , 6 km/h
Temperature: 28°F , -2°C
Dew Point: 23°F , -5°C
Humidity: 80%
Barometer: 30.18 inHg , 1022 hPa
Summary: Light Snow
Clouds: Overcast
Visibility: 6 miles , 10 km
Cloud details: Few Clouds 1200 ft
Overcast 3500 ft
2023/01/30 16:54 KSYR 301654Z 33003KT 6SM -SN FEW012 OVC035 M02/M05 A3018 RMK AO2 SLP221 P0000 T10171050
KBGM - Binghamton, New York, USA
Distance from station: SW 78mi, 126km
Updated: Mon, 30-Jan-2023 11:53am EST
Overcast
Overcast
 Wind from SSW
Wind: SSW 5 mph , 7 km/h
Temperature: 30°F , -1°C
Wind Chill: 25°F , -4°C
Dew Point: 27°F , -3°C
Humidity: 86%
Barometer: 30.09 inHg , 1019 hPa
Clouds: Overcast
Visibility: 9 miles , 14 km
Cloud details: Overcast 800 ft
2023/01/30 16:53 KBGM 301653Z 21004KT 9SM OVC008 M01/M03 A3009 RMK AO2 UPB39E41SNB20E39 SLP205 P0000 T10111028
 
KRME - Rome, New York, USA
Distance from station: WNW 43mi, 69km
Updated: Mon, 30-Jan-2023 11:53am EST
Overcast
Overcast
 Wind from calm
Wind: Calm
Temperature: 27°F , -3°C
Dew Point: 23°F , -5°C
Humidity: 86%
Barometer: 30.19 inHg , 1022.4 hPa
Clouds: Overcast
Visibility: 9 miles , 14 km
Cloud details: Few Clouds 1800 ft
Overcast 5000 ft
2023/01/30 16:53 KRME 301653Z 00000KT 9SM FEW018 OVC050 M03/M05 A3019 RMK AO2 SNE44 SLP227 P0001 T10331050
KJFK - New York, New York, USA
Distance from station: SSE 159mi, 256km
Updated: Mon, 30-Jan-2023 11:51am EST
Mostly cloudy
Mostly cloudy
 Wind from SSW
Wind: SSW 5 mph , 7 km/h
Temperature: 46°F , 8°C
Wind Chill: 44°F , 7°C
Dew Point: 37°F , 3°C
Humidity: 71%
Barometer: 30.18 inHg , 1022 hPa
Clouds: Mostly cloudy
Visibility: 10 miles , 16 km
Cloud details: Mostly cloudy 5500 ft
Mostly cloudy 23000 ft
2023/01/30 16:51 KJFK 301651Z 21004KT 10SM BKN055 BKN230 08/03 A3018 RMK AO2 SLP218 T00830033
 
KROC - Rochester, New York, USA
Distance from station: W 150mi, 242km
Updated: Mon, 30-Jan-2023 12:21pm EST
Light snow, Overcast
Light snow, Overcast
 Wind from calm
Wind: Calm
Temperature: 27°F , -3°C
Dew Point: 23°F , -5°C
Humidity: 86%
Barometer: 30.16 inHg , 1021.3 hPa
Summary: Light Snow
Clouds: Overcast
Visibility: 8 miles , 13 km
Cloud details: Mostly cloudy 1100 ft
Overcast 4000 ft
2023/01/30 17:21 KROC 301721Z 00000KT 8SM -SN BKN011 OVC040 M03/M05 A3016 RMK AO2 PRESFR P0000 T10281050
KART - Watertown, New York, USA
Distance from station: NNW 103mi, 166km
Updated: Mon, 30-Jan-2023 11:56am EST
Overcast
Overcast
 Wind from NE
Wind: NE 5 mph , 7 km/h
Temperature: 21°F , -6°C
Wind Chill: 14°F , -10°C
Dew Point: 18°F , -8°C
Humidity: 86%
Barometer: 30.20 inHg , 1022.7 hPa
Clouds: Overcast
Visibility: 10 miles , 16 km
Cloud details: Overcast 1600 ft
2023/01/30 16:56 KART 301656Z AUTO 05004KT 10SM OVC016 M06/M08 A3020 RMK AO2 SNB00E22 SLP234 P0000 T10561078
 
KELM - Elmira-Corning, New York, USA
Distance from station: SSW 121mi, 195km
Updated: Mon, 30-Jan-2023 12:06pm EST
Mist, Overcast
Mist, Overcast
 Wind from calm
Wind: Calm
Temperature: 32°F , 0°C
Dew Point: 30°F , -1°C
Humidity: 93%
Barometer: 30.12 inHg , 1020 hPa
Summary: Mist
Clouds: Overcast
Visibility: 1 3/4 miles , 2.8 km
Cloud details: Overcast 700 ft
2023/01/30 17:06 KELM 301706Z 00000KT 1 3/4SM BR OVC007 00/M01 A3012 RMK AO2 T00001011
KJHW - Jamestown, New York, USA
Distance from station: SW 238mi, 383km
Updated: Mon, 30-Jan-2023 12:24pm EST
Overcast
Overcast
 Wind from WNW
Wind: WNW 5 mph , 7 km/h
Temperature: 28°F , -2°C
Wind Chill: 22°F , -6°C
Dew Point: 28°F , -2°C
Humidity: 100%
Barometer: 30.10 inHg , 1019.3 hPa
Clouds: Overcast
Visibility: 10 miles , 16 km
Cloud details: Mostly cloudy 900 ft
Overcast 3000 ft
2023/01/30 17:24 KJHW 301724Z AUTO 29004KT 10SM BKN009 OVC030 M02/M02 A3010 RMK AO2 UPB16E23SNE16 CIG 007V011 P0000 FZRANO
 
KMSS - Massena, New York, USA
Distance from station: N 141mi, 232km
Updated: Mon, 30-Jan-2023 12:29pm EST
Light snow, Overcast
Light snow, Overcast
 Wind from WNW
Wind: WNW 3 mph , 6 km/h
Temperature: 16°F , -9°C
Dew Point: 10°F , -12°C
Humidity: 79%
Barometer: 30.23 inHg , 1023.7 hPa
Summary: Light Snow
Clouds: Overcast
Visibility: 1 1/4 miles , 2 km
Cloud details: Overcast 3600 ft
2023/01/30 17:29 KMSS 301729Z AUTO 30003KT 1 1/4SM -SN OVC036 M09/M12 A3023 RMK AO2 P0000 T10891122 $
KBUF - Buffalo, New York, USA
Distance from station: W 204mi, 328km
Updated: Mon, 30-Jan-2023 12:01pm EST
Light snow, Overcast
Light snow, Overcast
 Wind from calm
Wind: Calm
Temperature: 25°F , -4°C
Dew Point: 19°F , -7°C
Humidity: 80%
Barometer: 30.17 inHg , 1021.7 hPa
Summary: Light Snow
Clouds: Overcast
Visibility: 9 miles , 14 km
Cloud details: Few Clouds 1100 ft
Few Clouds 2500 ft
Overcast 5000 ft
2023/01/30 17:01 KBUF 301701Z 00000KT 9SM -SN FEW011 FEW025 OVC050 M04/M07 A3017 RMK AO2 P0000 T10391067